sensor_id;sensor_type;location;lat;lon;timestamp;pressure;altitude;pressure_sealevel;temperature;humidity
54872;BME280;43914;57.680;11.982;2023-07-28T00:02:15;99452.34;;;12.12;100.00
54872;BME280;43914;57.680;11.982;2023-07-28T00:04:40;99453.38;;;12.08;100.00
54872;BME280;43914;57.680;11.982;2023-07-28T00:07:06;99449.23;;;12.05;100.00
54872;BME280;43914;57.680;11.982;2023-07-28T00:09:32;99455.09;;;12.04;100.00
54872;BME280;43914;57.680;11.982;2023-07-28T00:11:58;99452.14;;;12.04;100.00
54872;BME280;43914;57.680;11.982;2023-07-28T00:14:25;99454.49;;;12.05;100.00
54872;BME280;43914;57.680;11.982;2023-07-28T00:16:56;99450.79;;;12.04;100.00
54872;BME280;43914;57.680;11.982;2023-07-28T00:19:22;99449.42;;;12.02;100.00
54872;BME280;43914;57.680;11.982;2023-07-28T00:21:48;99450.02;;;12.01;100.00
54872;BME280;43914;57.680;11.982;2023-07-28T00:24:14;99453.88;;;11.99;100.00
54872;BME280;43914;57.680;11.982;2023-07-28T00:26:40;99455.16;;;11.95;100.00
54872;BME280;43914;57.680;11.982;2023-07-28T00:29:05;99452.64;;;11.93;100.00
54872;BME280;43914;57.680;11.982;2023-07-28T00:31:32;99455.66;;;11.91;100.00
54872;BME280;43914;57.680;11.982;2023-07-28T00:33:57;99452.10;;;11.91;100.00
54872;BME280;43914;57.680;11.982;2023-07-28T00:36:23;99451.77;;;11.90;100.00
54872;BME280;43914;57.680;11.982;2023-07-28T00:38:48;99451.38;;;11.90;100.00
54872;BME280;43914;57.680;11.982;2023-07-28T00:41:14;99456.36;;;11.91;100.00
54872;BME280;43914;57.680;11.982;2023-07-28T00:43:40;99452.89;;;11.91;100.00
54872;BME280;43914;57.680;11.982;2023-07-28T00:46:05;99453.99;;;11.92;100.00
54872;BME280;43914;57.680;11.982;2023-07-28T00:48:31;99452.21;;;11.92;100.00
54872;BME280;43914;57.680;11.982;2023-07-28T00:50:57;99444.46;;;11.89;100.00
54872;BME280;43914;57.680;11.982;2023-07-28T00:53:23;99446.42;;;11.91;100.00
54872;BME280;43914;57.680;11.982;2023-07-28T00:55:49;99449.85;;;11.92;100.00
54872;BME280;43914;57.680;11.982;2023-07-28T00:58:14;99450.98;;;11.91;100.00
54872;BME280;43914;57.680;11.982;2023-07-28T01:00:40;99450.55;;;11.92;100.00
54872;BME280;43914;57.680;11.982;2023-07-28T01:03:05;99453.11;;;11.93;100.00
54872;BME280;43914;57.680;11.982;2023-07-28T01:09:06;99452.50;;;11.92;100.00
54872;BME280;43914;57.680;11.982;2023-07-28T01:11:35;99455.27;;;11.89;100.00
54872;BME280;43914;57.680;11.982;2023-07-28T01:14:00;99451.48;;;11.87;100.00
54872;BME280;43914;57.680;11.982;2023-07-28T01:16:26;99452.73;;;11.86;100.00
54872;BME280;43914;57.680;11.982;2023-07-28T01:18:51;99450.56;;;11.83;100.00
54872;BME280;43914;57.680;11.982;2023-07-28T01:21:21;99445.53;;;11.78;100.00
54872;BME280;43914;57.680;11.982;2023-07-28T01:24:21;99441.25;;;11.73;100.00
54872;BME280;43914;57.680;11.982;2023-07-28T01:26:52;99441.40;;;11.66;100.00
54872;BME280;43914;57.680;11.982;2023-07-28T01:29:19;99441.52;;;11.62;100.00
54872;BME280;43914;57.680;11.982;2023-07-28T01:31:47;99444.38;;;11.62;100.00
54872;BME280;43914;57.680;11.982;2023-07-28T01:34:13;99444.54;;;11.63;100.00
54872;BME280;43914;57.680;11.982;2023-07-28T01:36:39;99447.50;;;11.64;100.00
54872;BME280;43914;57.680;11.982;2023-07-28T01:39:04;99447.53;;;11.65;100.00
54872;BME280;43914;57.680;11.982;2023-07-28T01:41:30;99446.88;;;11.67;100.00
54872;BME280;43914;57.680;11.982;2023-07-28T01:43:55;99447.87;;;11.68;100.00
54872;BME280;43914;57.680;11.982;2023-07-28T01:46:22;99445.74;;;11.71;100.00
54872;BME280;43914;57.680;11.982;2023-07-28T01:48:47;99448.79;;;11.73;100.00
54872;BME280;43914;57.680;11.982;2023-07-28T01:51:13;99445.58;;;11.75;100.00
54872;BME280;43914;57.680;11.982;2023-07-28T01:53:38;99444.00;;;11.75;100.00
54872;BME280;43914;57.680;11.982;2023-07-28T01:56:04;99444.69;;;11.76;100.00
54872;BME280;43914;57.680;11.982;2023-07-28T01:58:29;99445.61;;;11.75;100.00
54872;BME280;43914;57.680;11.982;2023-07-28T02:00:55;99447.83;;;11.74;100.00
54872;BME280;43914;57.680;11.982;2023-07-28T02:03:20;99449.38;;;11.73;100.00
54872;BME280;43914;57.680;11.982;2023-07-28T02:05:46;99449.81;;;11.71;100.00
54872;BME280;43914;57.680;11.982;2023-07-28T02:08:12;99451.30;;;11.71;100.00
54872;BME280;43914;57.680;11.982;2023-07-28T02:10:37;99448.83;;;11.69;100.00
54872;BME280;43914;57.680;11.982;2023-07-28T02:13:03;99445.77;;;11.69;100.00
54872;BME280;43914;57.680;11.982;2023-07-28T02:15:28;99447.66;;;11.69;100.00
54872;BME280;43914;57.680;11.982;2023-07-28T02:17:54;99447.90;;;11.69;100.00
54872;BME280;43914;57.680;11.982;2023-07-28T02:20:19;99444.70;;;11.70;100.00
54872;BME280;43914;57.680;11.982;2023-07-28T02:22:45;99442.90;;;11.68;100.00
54872;BME280;43914;57.680;11.982;2023-07-28T02:25:10;99443.86;;;11.67;100.00
54872;BME280;43914;57.680;11.982;2023-07-28T02:27:39;99443.77;;;11.65;100.00
54872;BME280;43914;57.680;11.982;2023-07-28T02:30:06;99447.23;;;11.66;100.00
54872;BME280;43914;57.680;11.982;2023-07-28T02:32:31;99447.98;;;11.65;100.00
54872;BME280;43914;57.680;11.982;2023-07-28T02:34:57;99450.73;;;11.63;100.00
54872;BME280;43914;57.680;11.982;2023-07-28T02:37:23;99450.49;;;11.60;100.00
54872;BME280;43914;57.680;11.982;2023-07-28T02:39:49;99448.42;;;11.57;100.00
54872;BME280;43914;57.680;11.982;2023-07-28T02:42:14;99449.38;;;11.56;100.00
54872;BME280;43914;57.680;11.982;2023-07-28T02:44:40;99448.89;;;11.55;100.00
54872;BME280;43914;57.680;11.982;2023-07-28T02:47:05;99448.41;;;11.53;100.00
54872;BME280;43914;57.680;11.982;2023-07-28T02:49:31;99452.28;;;11.51;100.00
54872;BME280;43914;57.680;11.982;2023-07-28T02:51:56;99449.70;;;11.51;100.00
54872;BME280;43914;57.680;11.982;2023-07-28T02:54:22;99449.79;;;11.51;100.00
54872;BME280;43914;57.680;11.982;2023-07-28T02:56:49;99453.19;;;11.51;100.00
54872;BME280;43914;57.680;11.982;2023-07-28T02:59:15;99456.60;;;11.50;100.00
54872;BME280;43914;57.680;11.982;2023-07-28T03:01:40;99460.21;;;11.48;100.00
54872;BME280;43914;57.680;11.982;2023-07-28T03:04:06;99462.38;;;11.47;100.00
54872;BME280;43914;57.680;11.982;2023-07-28T03:06:31;99461.59;;;11.48;100.00
54872;BME280;43914;57.680;11.982;2023-07-28T03:08:58;99466.98;;;11.49;100.00
54872;BME280;43914;57.680;11.982;2023-07-28T03:11:24;99466.54;;;11.48;100.00
54872;BME280;43914;57.680;11.982;2023-07-28T03:13:50;99469.61;;;11.48;100.00
54872;BME280;43914;57.680;11.982;2023-07-28T03:16:15;99465.95;;;11.46;100.00
54872;BME280;43914;57.680;11.982;2023-07-28T03:18:41;99469.42;;;11.45;100.00
54872;BME280;43914;57.680;11.982;2023-07-28T03:21:08;99471.71;;;11.45;100.00
54872;BME280;43914;57.680;11.982;2023-07-28T03:23:34;99473.94;;;11.45;100.00
54872;BME280;43914;57.680;11.982;2023-07-28T03:25:59;99472.14;;;11.44;100.00
54872;BME280;43914;57.680;11.982;2023-07-28T03:28:24;99473.85;;;11.46;100.00
54872;BME280;43914;57.680;11.982;2023-07-28T03:30:50;99474.29;;;11.44;100.00
54872;BME280;43914;57.680;11.982;2023-07-28T03:33:16;99478.34;;;11.44;100.00
54872;BME280;43914;57.680;11.982;2023-07-28T03:35:41;99475.39;;;11.43;100.00
54872;BME280;43914;57.680;11.982;2023-07-28T03:38:07;99473.94;;;11.41;100.00
54872;BME280;43914;57.680;11.982;2023-07-28T03:40:32;99478.17;;;11.39;100.00
54872;BME280;43914;57.680;11.982;2023-07-28T03:42:58;99479.73;;;11.37;100.00
54872;BME280;43914;57.680;11.982;2023-07-28T03:45:24;99479.27;;;11.35;100.00
54872;BME280;43914;57.680;11.982;2023-07-28T03:47:50;99480.33;;;11.34;100.00
54872;BME280;43914;57.680;11.982;2023-07-28T03:50:16;99478.42;;;11.34;100.00
54872;BME280;43914;57.680;11.982;2023-07-28T03:52:41;99477.06;;;11.35;100.00
54872;BME280;43914;57.680;11.982;2023-07-28T03:55:07;99474.02;;;11.36;100.00
54872;BME280;43914;57.680;11.982;2023-07-28T03:57:32;99473.02;;;11.39;100.00
54872;BME280;43914;57.680;11.982;2023-07-28T03:59:57;99473.74;;;11.40;100.00
54872;BME280;43914;57.680;11.982;2023-07-28T04:02:23;99472.69;;;11.41;100.00
54872;BME280;43914;57.680;11.982;2023-07-28T04:04:53;99475.16;;;11.44;100.00
54872;BME280;43914;57.680;11.982;2023-07-28T04:07:20;99471.03;;;11.47;100.00
54872;BME280;43914;57.680;11.982;2023-07-28T04:09:45;99472.06;;;11.47;100.00
54872;BME280;43914;57.680;11.982;2023-07-28T04:12:11;99474.44;;;11.49;100.00
54872;BME280;43914;57.680;11.982;2023-07-28T04:14:36;99478.06;;;11.51;100.00
54872;BME280;43914;57.680;11.982;2023-07-28T04:17:02;99485.53;;;11.54;100.00
54872;BME280;43914;57.680;11.982;2023-07-28T04:19:28;99482.88;;;11.58;100.00
54872;BME280;43914;57.680;11.982;2023-07-28T04:21:56;99482.89;;;11.62;100.00
54872;BME280;43914;57.680;11.982;2023-07-28T04:24:22;99478.46;;;11.65;100.00
54872;BME280;43914;57.680;11.982;2023-07-28T04:26:48;99482.40;;;11.68;100.00
54872;BME280;43914;57.680;11.982;2023-07-28T04:29:16;99489.84;;;11.72;100.00
54872;BME280;43914;57.680;11.982;2023-07-28T04:31:42;99492.68;;;11.76;100.00
54872;BME280;43914;57.680;11.982;2023-07-28T04:34:07;99483.72;;;11.78;100.00
54872;BME280;43914;57.680;11.982;2023-07-28T04:36:34;99479.54;;;11.81;100.00
54872;BME280;43914;57.680;11.982;2023-07-28T04:38:59;99479.70;;;11.85;100.00
54872;BME280;43914;57.680;11.982;2023-07-28T04:41:25;99482.48;;;11.88;100.00
54872;BME280;43914;57.680;11.982;2023-07-28T04:43:50;99476.45;;;11.92;100.00
54872;BME280;43914;57.680;11.982;2023-07-28T04:46:16;99481.52;;;11.96;100.00
54872;BME280;43914;57.680;11.982;2023-07-28T04:48:41;99483.02;;;11.99;100.00
54872;BME280;43914;57.680;11.982;2023-07-28T04:51:07;99485.13;;;12.04;100.00
54872;BME280;43914;57.680;11.982;2023-07-28T04:53:32;99487.35;;;12.08;100.00
54872;BME280;43914;57.680;11.982;2023-07-28T04:55:58;99490.30;;;12.11;100.00
54872;BME280;43914;57.680;11.982;2023-07-28T04:58:24;99489.16;;;12.17;100.00
54872;BME280;43914;57.680;11.982;2023-07-28T05:00:49;99491.71;;;12.21;100.00
54872;BME280;43914;57.680;11.982;2023-07-28T05:03:15;99493.45;;;12.27;100.00
54872;BME280;43914;57.680;11.982;2023-07-28T05:05:43;99492.86;;;12.32;100.00
54872;BME280;43914;57.680;11.982;2023-07-28T05:08:09;99490.06;;;12.37;100.00
54872;BME280;43914;57.680;11.982;2023-07-28T05:10:35;99489.98;;;12.43;100.00
54872;BME280;43914;57.680;11.982;2023-07-28T05:13:00;99490.17;;;12.48;100.00
54872;BME280;43914;57.680;11.982;2023-07-28T05:15:26;99491.39;;;12.53;100.00
54872;BME280;43914;57.680;11.982;2023-07-28T05:17:51;99495.90;;;12.59;100.00
54872;BME280;43914;57.680;11.982;2023-07-28T05:20:17;99498.98;;;12.65;100.00
54872;BME280;43914;57.680;11.982;2023-07-28T05:22:42;99495.39;;;12.70;100.00
54872;BME280;43914;57.680;11.982;2023-07-28T05:25:08;99492.78;;;12.76;100.00
54872;BME280;43914;57.680;11.982;2023-07-28T05:27:34;99493.75;;;12.81;100.00
54872;BME280;43914;57.680;11.982;2023-07-28T05:29:59;99490.63;;;12.86;100.00
54872;BME280;43914;57.680;11.982;2023-07-28T05:32:25;99488.95;;;12.93;100.00
54872;BME280;43914;57.680;11.982;2023-07-28T05:34:50;99490.50;;;12.98;100.00
54872;BME280;43914;57.680;11.982;2023-07-28T05:37:15;99487.70;;;13.03;100.00
54872;BME280;43914;57.680;11.982;2023-07-28T05:39:41;99486.17;;;13.07;100.00
54872;BME280;43914;57.680;11.982;2023-07-28T05:42:08;99484.01;;;13.10;100.00
54872;BME280;43914;57.680;11.982;2023-07-28T05:44:33;99487.85;;;13.13;100.00
54872;BME280;43914;57.680;11.982;2023-07-28T05:46:59;99485.72;;;13.17;100.00
54872;BME280;43914;57.680;11.982;2023-07-28T05:49:25;99486.33;;;13.20;100.00
54872;BME280;43914;57.680;11.982;2023-07-28T05:51:50;99485.63;;;13.24;100.00
54872;BME280;43914;57.680;11.982;2023-07-28T05:54:15;99484.02;;;13.29;100.00
54872;BME280;43914;57.680;11.982;2023-07-28T05:56:42;99489.70;;;13.35;100.00
54872;BME280;43914;57.680;11.982;2023-07-28T05:59:08;99482.35;;;13.39;100.00
54872;BME280;43914;57.680;11.982;2023-07-28T06:01:33;99484.95;;;13.45;100.00
54872;BME280;43914;57.680;11.982;2023-07-28T06:03:59;99485.88;;;13.50;100.00
54872;BME280;43914;57.680;11.982;2023-07-28T06:06:28;99487.55;;;13.58;100.00
54872;BME280;43914;57.680;11.982;2023-07-28T06:08:54;99483.45;;;13.64;100.00
54872;BME280;43914;57.680;11.982;2023-07-28T06:11:20;99485.61;;;13.70;100.00
54872;BME280;43914;57.680;11.982;2023-07-28T06:13:46;99487.20;;;13.76;100.00
54872;BME280;43914;57.680;11.982;2023-07-28T06:16:13;99489.45;;;13.82;100.00
54872;BME280;43914;57.680;11.982;2023-07-28T06:18:38;99491.23;;;13.90;100.00
54872;BME280;43914;57.680;11.982;2023-07-28T06:21:04;99488.52;;;13.95;100.00
54872;BME280;43914;57.680;11.982;2023-07-28T06:23:29;99487.61;;;13.97;100.00
54872;BME280;43914;57.680;11.982;2023-07-28T06:25:55;99493.55;;;14.02;100.00
54872;BME280;43914;57.680;11.982;2023-07-28T06:28:21;99494.71;;;14.06;100.00
54872;BME280;43914;57.680;11.982;2023-07-28T06:30:46;99494.34;;;14.07;100.00
54872;BME280;43914;57.680;11.982;2023-07-28T06:33:12;99494.80;;;14.09;100.00
54872;BME280;43914;57.680;11.982;2023-07-28T06:35:38;99498.04;;;14.14;100.00
54872;BME280;43914;57.680;11.982;2023-07-28T06:38:04;99499.06;;;14.21;100.00
54872;BME280;43914;57.680;11.982;2023-07-28T06:40:29;99499.70;;;14.32;100.00
54872;BME280;43914;57.680;11.982;2023-07-28T06:42:55;99498.98;;;14.45;100.00
54872;BME280;43914;57.680;11.982;2023-07-28T06:45:21;99499.04;;;14.62;100.00
54872;BME280;43914;57.680;11.982;2023-07-28T06:47:47;99500.66;;;14.79;100.00
54872;BME280;43914;57.680;11.982;2023-07-28T06:50:12;99503.85;;;14.90;100.00
54872;BME280;43914;57.680;11.982;2023-07-28T06:52:39;99501.05;;;14.98;100.00
54872;BME280;43914;57.680;11.982;2023-07-28T06:55:05;99502.63;;;15.05;100.00
54872;BME280;43914;57.680;11.982;2023-07-28T06:57:31;99506.83;;;15.04;100.00
54872;BME280;43914;57.680;11.982;2023-07-28T06:59:56;99513.26;;;14.99;100.00
54872;BME280;43914;57.680;11.982;2023-07-28T07:02:22;99511.92;;;14.94;100.00
54872;BME280;43914;57.680;11.982;2023-07-28T07:04:48;99513.69;;;14.96;100.00
54872;BME280;43914;57.680;11.982;2023-07-28T07:07:14;99512.13;;;15.03;100.00
54872;BME280;43914;57.680;11.982;2023-07-28T07:09:39;99511.67;;;15.15;100.00
54872;BME280;43914;57.680;11.982;2023-07-28T07:12:09;99514.48;;;15.26;100.00
54872;BME280;43914;57.680;11.982;2023-07-28T07:14:35;99516.71;;;15.36;100.00
54872;BME280;43914;57.680;11.982;2023-07-28T07:17:00;99515.81;;;15.47;100.00
54872;BME280;43914;57.680;11.982;2023-07-28T07:19:29;99517.52;;;15.52;100.00
54872;BME280;43914;57.680;11.982;2023-07-28T07:21:55;99519.55;;;15.44;100.00
54872;BME280;43914;57.680;11.982;2023-07-28T07:24:21;99521.34;;;15.30;99.48
54872;BME280;43914;57.680;11.982;2023-07-28T07:26:46;99523.86;;;15.19;99.50
54872;BME280;43914;57.680;11.982;2023-07-28T07:29:12;99526.78;;;15.12;99.93
54872;BME280;43914;57.680;11.982;2023-07-28T07:31:38;99523.73;;;15.11;100.00
54872;BME280;43914;57.680;11.982;2023-07-28T07:34:04;99522.61;;;15.13;99.84
54872;BME280;43914;57.680;11.982;2023-07-28T07:36:30;99521.42;;;15.19;99.43
54872;BME280;43914;57.680;11.982;2023-07-28T07:38:55;99527.64;;;15.25;97.79
54872;BME280;43914;57.680;11.982;2023-07-28T07:41:22;99529.02;;;15.30;95.33
54872;BME280;43914;57.680;11.982;2023-07-28T07:43:48;99528.15;;;15.37;95.24
54872;BME280;43914;57.680;11.982;2023-07-28T07:46:15;99528.17;;;15.41;95.01
54872;BME280;43914;57.680;11.982;2023-07-28T07:48:41;99529.46;;;15.37;94.04
54872;BME280;43914;57.680;11.982;2023-07-28T07:51:07;99535.66;;;15.36;94.16
54872;BME280;43914;57.680;11.982;2023-07-28T07:53:33;99535.88;;;15.36;93.72
54872;BME280;43914;57.680;11.982;2023-07-28T07:55:59;99539.86;;;15.38;92.84
54872;BME280;43914;57.680;11.982;2023-07-28T07:58:24;99542.42;;;15.39;92.99
54872;BME280;43914;57.680;11.982;2023-07-28T08:00:50;99543.45;;;15.41;93.40
54872;BME280;43914;57.680;11.982;2023-07-28T08:03:15;99540.74;;;15.45;93.51
54872;BME280;43914;57.680;11.982;2023-07-28T08:05:40;99539.17;;;15.49;93.78
54872;BME280;43914;57.680;11.982;2023-07-28T08:08:06;99540.35;;;15.54;94.23
54872;BME280;43914;57.680;11.982;2023-07-28T08:10:33;99546.38;;;15.67;94.20
54872;BME280;43914;57.680;11.982;2023-07-28T08:12:59;99546.20;;;15.76;93.56
54872;BME280;43914;57.680;11.982;2023-07-28T08:15:25;99545.35;;;15.81;92.92
54872;BME280;43914;57.680;11.982;2023-07-28T08:17:51;99547.60;;;15.87;93.04
54872;BME280;43914;57.680;11.982;2023-07-28T08:20:17;99553.67;;;15.90;92.57
54872;BME280;43914;57.680;11.982;2023-07-28T08:22:43;99548.31;;;15.93;92.70
54872;BME280;43914;57.680;11.982;2023-07-28T08:25:08;99546.78;;;15.96;92.36
54872;BME280;43914;57.680;11.982;2023-07-28T08:27:34;99551.23;;;16.00;92.13
54872;BME280;43914;57.680;11.982;2023-07-28T08:29:59;99550.70;;;16.06;91.75
54872;BME280;43914;57.680;11.982;2023-07-28T08:32:25;99555.14;;;16.10;90.63
54872;BME280;43914;57.680;11.982;2023-07-28T08:34:50;99552.58;;;16.12;89.97
54872;BME280;43914;57.680;11.982;2023-07-28T08:37:16;99553.65;;;16.16;89.67
54872;BME280;43914;57.680;11.982;2023-07-28T08:39:41;99560.98;;;16.17;88.96
54872;BME280;43914;57.680;11.982;2023-07-28T08:42:06;99556.88;;;16.17;88.63
54872;BME280;43914;57.680;11.982;2023-07-28T08:44:33;99558.30;;;16.24;89.15
54872;BME280;43914;57.680;11.982;2023-07-28T08:47:04;99560.11;;;16.29;88.96
54872;BME280;43914;57.680;11.982;2023-07-28T08:49:33;99567.20;;;16.29;88.52
54872;BME280;43914;57.680;11.982;2023-07-28T08:52:02;99566.16;;;16.26;87.93
54872;BME280;43914;57.680;11.982;2023-07-28T08:54:29;99561.47;;;16.28;88.08
54872;BME280;43914;57.680;11.982;2023-07-28T08:56:54;99564.84;;;16.29;87.67
54872;BME280;43914;57.680;11.982;2023-07-28T08:59:24;99558.96;;;16.24;87.42
54872;BME280;43914;57.680;11.982;2023-07-28T09:01:53;99560.66;;;16.22;87.24
54872;BME280;43914;57.680;11.982;2023-07-28T09:04:20;99560.27;;;16.23;87.27
54872;BME280;43914;57.680;11.982;2023-07-28T09:06:49;99554.70;;;16.25;87.09
54872;BME280;43914;57.680;11.982;2023-07-28T09:09:15;99554.33;;;16.26;87.17
54872;BME280;43914;57.680;11.982;2023-07-28T09:11:54;99554.99;;;16.27;86.82
54872;BME280;43914;57.680;11.982;2023-07-28T09:14:21;99554.20;;;16.29;86.02
54872;BME280;43914;57.680;11.982;2023-07-28T09:16:49;99554.48;;;16.29;86.23
54872;BME280;43914;57.680;11.982;2023-07-28T09:19:15;99556.92;;;16.34;86.58
54872;BME280;43914;57.680;11.982;2023-07-28T09:21:44;99558.19;;;16.43;87.10
54872;BME280;43914;57.680;11.982;2023-07-28T09:24:13;99560.26;;;16.45;85.03
54872;BME280;43914;57.680;11.982;2023-07-28T09:26:39;99561.73;;;16.40;83.03
54872;BME280;43914;57.680;11.982;2023-07-28T09:29:18;99563.35;;;16.40;83.34
54872;BME280;43914;57.680;11.982;2023-07-28T09:31:45;99566.49;;;16.45;82.10
54872;BME280;43914;57.680;11.982;2023-07-28T09:34:12;99569.58;;;16.50;82.20
54872;BME280;43914;57.680;11.982;2023-07-28T09:36:39;99566.98;;;16.50;81.29
54872;BME280;43914;57.680;11.982;2023-07-28T09:39:07;99571.48;;;16.53;80.88
54872;BME280;43914;57.680;11.982;2023-07-28T09:41:36;99567.60;;;16.55;80.98
54872;BME280;43914;57.680;11.982;2023-07-28T09:44:06;99566.08;;;16.60;81.55
54872;BME280;43914;57.680;11.982;2023-07-28T09:46:35;99565.53;;;16.66;81.36
54872;BME280;43914;57.680;11.982;2023-07-28T09:49:10;99571.20;;;16.68;79.60
54872;BME280;43914;57.680;11.982;2023-07-28T09:51:36;99572.45;;;16.63;78.58
54872;BME280;43914;57.680;11.982;2023-07-28T09:54:12;99569.60;;;16.65;79.54
54872;BME280;43914;57.680;11.982;2023-07-28T09:56:38;99574.45;;;16.71;80.22
54872;BME280;43914;57.680;11.982;2023-07-28T09:59:11;99575.04;;;16.76;80.20
54872;BME280;43914;57.680;11.982;2023-07-28T10:01:39;99578.09;;;16.77;80.43
54872;BME280;43914;57.680;11.982;2023-07-28T10:04:06;99580.23;;;16.78;80.31
54872;BME280;43914;57.680;11.982;2023-07-28T10:06:32;99581.40;;;16.82;79.77
54872;BME280;43914;57.680;11.982;2023-07-28T10:08:59;99582.88;;;16.84;79.24
54872;BME280;43914;57.680;11.982;2023-07-28T10:11:25;99583.89;;;16.86;78.43
54872;BME280;43914;57.680;11.982;2023-07-28T10:13:54;99580.45;;;16.90;78.91
54872;BME280;43914;57.680;11.982;2023-07-28T10:16:28;99586.61;;;16.97;78.28
54872;BME280;43914;57.680;11.982;2023-07-28T10:18:54;99581.48;;;17.03;77.90
54872;BME280;43914;57.680;11.982;2023-07-28T10:21:20;99584.36;;;17.08;77.74
54872;BME280;43914;57.680;11.982;2023-07-28T10:23:54;99582.77;;;17.13;77.67
54872;BME280;43914;57.680;11.982;2023-07-28T10:26:42;99583.00;;;17.13;77.09
54872;BME280;43914;57.680;11.982;2023-07-28T10:29:14;99580.88;;;17.13;77.76
54872;BME280;43914;57.680;11.982;2023-07-28T10:31:54;99587.73;;;17.20;78.86
54872;BME280;43914;57.680;11.982;2023-07-28T10:34:21;99582.36;;;17.28;78.25
54872;BME280;43914;57.680;11.982;2023-07-28T10:36:56;99580.70;;;17.30;77.46
54872;BME280;43914;57.680;11.982;2023-07-28T10:39:22;99578.91;;;17.35;78.03
54872;BME280;43914;57.680;11.982;2023-07-28T10:42:05;99584.58;;;17.45;78.08
54872;BME280;43914;57.680;11.982;2023-07-28T10:44:32;99585.19;;;17.52;77.41
54872;BME280;43914;57.680;11.982;2023-07-28T10:46:58;99586.15;;;17.58;77.51
54872;BME280;43914;57.680;11.982;2023-07-28T10:49:25;99591.77;;;17.67;76.54
54872;BME280;43914;57.680;11.982;2023-07-28T10:51:50;99593.90;;;17.76;76.23
54872;BME280;43914;57.680;11.982;2023-07-28T10:54:16;99592.91;;;17.81;75.18
54872;BME280;43914;57.680;11.982;2023-07-28T10:56:46;99591.63;;;17.86;74.73
54872;BME280;43914;57.680;11.982;2023-07-28T10:59:12;99596.13;;;17.92;74.46
54872;BME280;43914;57.680;11.982;2023-07-28T11:01:39;99595.95;;;17.91;74.81
54872;BME280;43914;57.680;11.982;2023-07-28T11:04:14;99594.52;;;17.95;74.66
54872;BME280;43914;57.680;11.982;2023-07-28T11:06:42;99594.91;;;18.01;75.07
54872;BME280;43914;57.680;11.982;2023-07-28T11:09:09;99593.48;;;18.02;75.13
54872;BME280;43914;57.680;11.982;2023-07-28T11:11:38;99592.32;;;18.04;75.35
54872;BME280;43914;57.680;11.982;2023-07-28T11:14:08;99592.61;;;18.07;75.64
54872;BME280;43914;57.680;11.982;2023-07-28T11:16:40;99592.63;;;18.09;75.08
54872;BME280;43914;57.680;11.982;2023-07-28T11:19:11;99592.27;;;18.12;75.48
54872;BME280;43914;57.680;11.982;2023-07-28T11:21:38;99594.92;;;18.21;75.75
54872;BME280;43914;57.680;11.982;2023-07-28T11:24:05;99589.48;;;18.24;74.48
54872;BME280;43914;57.680;11.982;2023-07-28T11:26:32;99586.90;;;18.28;75.28
54872;BME280;43914;57.680;11.982;2023-07-28T11:28:59;99587.20;;;18.41;75.93
54872;BME280;43914;57.680;11.982;2023-07-28T11:31:25;99589.61;;;18.49;75.10
54872;BME280;43914;57.680;11.982;2023-07-28T11:33:51;99591.18;;;18.46;74.41
54872;BME280;43914;57.680;11.982;2023-07-28T11:36:26;99598.88;;;18.51;75.04
54872;BME280;43914;57.680;11.982;2023-07-28T11:38:53;99599.52;;;18.52;75.34
54872;BME280;43914;57.680;11.982;2023-07-28T11:41:20;99594.68;;;18.52;75.19
54872;BME280;43914;57.680;11.982;2023-07-28T11:43:50;99594.35;;;18.59;75.38
54872;BME280;43914;57.680;11.982;2023-07-28T11:46:35;99601.42;;;18.61;75.26
54872;BME280;43914;57.680;11.982;2023-07-28T11:51:41;99599.85;;;18.53;74.83
54872;BME280;43914;57.680;11.982;2023-07-28T11:54:13;99601.02;;;18.44;75.16
54872;BME280;43914;57.680;11.982;2023-07-28T11:56:43;99606.66;;;18.41;74.64
54872;BME280;43914;57.680;11.982;2023-07-28T11:59:10;99610.38;;;18.32;74.55
54872;BME280;43914;57.680;11.982;2023-07-28T12:04:39;99607.73;;;18.49;75.70
54872;BME280;43914;57.680;11.982;2023-07-28T12:07:07;99612.44;;;18.67;75.29
54872;BME280;43914;57.680;11.982;2023-07-28T12:12:15;99615.01;;;18.88;72.59
54872;BME280;43914;57.680;11.982;2023-07-28T12:14:41;99621.26;;;18.96;72.20
54872;BME280;43914;57.680;11.982;2023-07-28T12:17:13;99622.60;;;19.06;72.16
54872;BME280;43914;57.680;11.982;2023-07-28T12:19:55;99623.98;;;19.15;71.23
54872;BME280;43914;57.680;11.982;2023-07-28T12:22:21;99618.18;;;19.24;70.95
54872;BME280;43914;57.680;11.982;2023-07-28T12:24:46;99623.04;;;19.35;70.12
54872;BME280;43914;57.680;11.982;2023-07-28T12:27:13;99623.15;;;19.43;68.80
54872;BME280;43914;57.680;11.982;2023-07-28T12:29:39;99626.33;;;19.54;69.22
54872;BME280;43914;57.680;11.982;2023-07-28T12:32:06;99628.02;;;19.62;68.75
54872;BME280;43914;57.680;11.982;2023-07-28T12:34:32;99634.66;;;19.72;67.42
54872;BME280;43914;57.680;11.982;2023-07-28T12:36:59;99636.30;;;19.78;66.13
54872;BME280;43914;57.680;11.982;2023-07-28T12:39:38;99628.71;;;19.85;66.71
54872;BME280;43914;57.680;11.982;2023-07-28T12:42:08;99630.53;;;19.95;66.72
54872;BME280;43914;57.680;11.982;2023-07-28T12:44:35;99635.92;;;20.05;65.17
54872;BME280;43914;57.680;11.982;2023-07-28T12:47:02;99630.77;;;20.15;64.87
54872;BME280;43914;57.680;11.982;2023-07-28T12:49:32;99642.21;;;20.27;63.99
54872;BME280;43914;57.680;11.982;2023-07-28T12:52:04;99634.77;;;20.30;62.29
54872;BME280;43914;57.680;11.982;2023-07-28T12:54:33;99630.16;;;20.44;62.69
54872;BME280;43914;57.680;11.982;2023-07-28T12:57:00;99633.59;;;20.62;61.28